Terminal Aerodrome Forecast
Issued by NWS

Home | Current Version | Previous Version | Text Only | Print | Product List | Glossary On
Versions: 1 2 3 4 5 6 7 8 9 10 11 12 13 14 15 16 17 18 19 20
421
FTUS46 KSEW 140545
TAFHQM
TAF
KHQM 140545Z 1406/1506 21010KT 5SM BR SCT003 BKN008 OVC015
      TEMPO 1406/1410 2SM BR BKN003 OVC006
     FM142000 19010KT 4SM -RA SCT006 OVC011=

USA.gov is the U.S. government's official web portal to all federal, state and local government web resources and services.